KVDI/VDI METAR and TAF weather

Enter ICAO airport designator
Station Type Date Time Source
KVDI METAR 2019/10/23 20:55 UTC NOAA

KVDI 232055Z AUTO 07003KT 10SM CLR 23/00 A3012 RMK AO2


Station Type Date Time Source
KVDI Decoded METAR 2019/10/23 20:55 UTC NOAA

Vidalia, Vidalia Municipal Airport, GA, United States (KVDI) 32-11-33N 082-22-19W
Oct 23, 2019 - 04:55 PM EDT / 2019.10.23 2055 UTC
Wind: from the ENE (070 degrees) at 3 MPH (3 KT):0
Visibility: 10 mile(s):0
Sky conditions: clear
Temperature: 73 F (23 C)
Dew Point: 32 F (0 C)
Relative Humidity: 21%
Pressure (altimeter): 30.12 in. Hg (1019 hPa)
ob: KVDI 232055Z AUTO 07003KT 10SM CLR 23/00 A3012 RMK AO2
cycle: 21

Station Type Date Time Source
KVDI TAF UTC NOAA

Error!

Example: see airport list